Time;durP1;ratioP1;P1;durP2;ratioP2;P2;SDS_P1;SDS_P2;PMS_P1;PMS_P2;Temp;Humidity;BMP_temperature;BMP_pressure;BME280_temperature;BME280_humidity;BME280_pressure;Samples;Min_cycle;Max_cycle;Signal;HPM_P1;HPM_P2
2023/03/25 00:01:01;;;;;;;3.53;0.55;;;;;;;;;;10566482;27;20517;-77
2023/03/25 00:06:13;;;;;;;0.38;0.38;;;;;;;;;;10554714;27;20496;-78
2023/03/25 00:11:17;;;;;;;1.65;0.77;;;;;;;;;;10555075;27;20039;-78
2023/03/25 00:16:23;;;;;;;2.67;0.95;;;;;;;;;;10560210;27;20048;-76
2023/03/25 00:21:26;;;;;;;0.55;0.40;;;;;;;;;;10562090;27;20047;-78
2023/03/25 00:26:31;;;;;;;1.17;0.80;;;;;;;;;;10558056;27;20044;-76
2023/03/25 00:31:35;;;;;;;1.70;0.80;;;;;;;;;;10549091;27;20036;-77
2023/03/25 00:36:38;;;;;;;0.98;0.50;;;;;;;;;;10556854;27;20044;-77
2023/03/25 00:41:42;;;;;;;2.13;0.65;;;;;;;;;;10531469;28;20063;-77
2023/03/25 00:46:50;;;;;;;1.90;0.73;;;;;;;;;;10535325;27;20131;-78
2023/03/25 00:51:53;;;;;;;0.50;0.32;;;;;;;;;;10555115;27;20039;-77
2023/03/25 00:56:56;;;;;;;1.08;0.60;;;;;;;;;;10557246;27;20063;-76
2023/03/25 01:08:34;;;;;;;2.45;0.75;;;;;;;;;;10566936;28;20023;-75
2023/03/25 01:13:36;;;;;;;0.50;0.50;;;;;;;;;;10562362;27;20035;-75
2023/03/25 01:18:40;;;;;;;2.65;0.68;;;;;;;;;;10553382;27;20556;-76
2023/03/25 01:24:05;;;;;;;2.55;1.00;;;;;;;;;;10556628;27;20522;-75
2023/03/25 01:29:08;;;;;;;1.55;0.60;;;;;;;;;;10549805;27;20062;-76
2023/03/25 01:34:12;;;;;;;2.90;0.73;;;;;;;;;;10536559;27;20046;-76
2023/03/25 01:39:17;;;;;;;3.40;0.60;;;;;;;;;;10552820;27;20126;-76
2023/03/25 01:44:39;;;;;;;2.00;0.77;;;;;;;;;;10539591;28;20123;-76
2023/03/25 01:49:44;;;;;;;1.30;0.60;;;;;;;;;;10555539;28;20036;-75
2023/03/25 01:55:00;;;;;;;1.17;0.88;;;;;;;;;;10562798;28;20036;-76
2023/03/25 02:00:07;;;;;;;2.10;0.60;;;;;;;;;;10552377;28;20111;-75
2023/03/25 02:05:12;;;;;;;1.33;0.80;;;;;;;;;;10513852;28;20047;-77
2023/03/25 02:10:18;;;;;;;0.60;0.30;;;;;;;;;;10560321;28;20223;-75
2023/03/25 02:15:23;;;;;;;2.85;0.60;;;;;;;;;;10535394;28;20530;-76
2023/03/25 02:20:57;;;;;;;3.17;0.90;;;;;;;;;;10564412;27;20058;-77
2023/03/25 02:26:16;;;;;;;2.20;0.50;;;;;;;;;;10563258;27;20043;-76
2023/03/25 02:31:31;;;;;;;3.97;0.60;;;;;;;;;;10546669;27;20048;-75
2023/03/25 02:36:58;;;;;;;1.70;0.52;;;;;;;;;;10573148;27;20047;-75
2023/03/25 02:42:07;;;;;;;1.83;0.32;;;;;;;;;;10573300;27;20464;-76
2023/03/25 02:47:13;;;;;;;1.45;0.52;;;;;;;;;;10564744;27;20036;-78
2023/03/25 02:52:18;;;;;;;2.72;0.50;;;;;;;;;;10544369;27;20153;-77
2023/03/25 02:57:25;;;;;;;1.75;0.50;;;;;;;;;;10556969;27;20039;-77
2023/03/25 03:02:31;;;;;;;4.72;1.00;;;;;;;;;;10563113;27;20042;-76
2023/03/25 03:07:45;;;;;;;2.05;0.40;;;;;;;;;;10559761;27;21601;-77
2023/03/25 03:12:59;;;;;;;2.00;0.40;;;;;;;;;;10564067;27;20047;-76
2023/03/25 03:18:18;;;;;;;0.65;0.50;;;;;;;;;;10568575;27;20181;-77
2023/03/25 03:23:24;;;;;;;2.15;0.70;;;;;;;;;;10561596;27;20055;-75
2023/03/25 03:28:34;;;;;;;0.55;0.22;;;;;;;;;;10563399;27;20048;-76
2023/03/25 03:33:41;;;;;;;0.52;0.40;;;;;;;;;;10559030;27;20039;-77
2023/03/25 03:38:48;;;;;;;0.73;0.28;;;;;;;;;;10554510;27;20063;-77
2023/03/25 03:43:55;;;;;;;3.70;0.70;;;;;;;;;;10547759;27;20032;-75
2023/03/25 03:49:00;;;;;;;3.17;0.50;;;;;;;;;;10558538;27;20053;-77
2023/03/25 03:54:03;;;;;;;;;;;;;;;;;;10559707;27;20410;-77
2023/03/25 04:05:48;;;;;;;2.50;0.60;;;;;;;;;;10544892;27;20056;-76
2023/03/25 04:10:57;;;;;;;12.23;1.10;;;;;;;;;;10538713;27;20491;-76
2023/03/25 04:16:01;;;;;;;2.08;0.38;;;;;;;;;;10558377;27;20245;-77
2023/03/25 04:21:08;;;;;;;3.67;0.35;;;;;;;;;;10537955;27;20527;-77
2023/03/25 04:26:12;;;;;;;2.05;0.43;;;;;;;;;;10540208;27;20192;-76
2023/03/25 04:31:15;;;;;;;;;;;;;;;;;;10561076;27;20122;-76
2023/03/25 04:36:21;;;;;;;3.45;0.65;;;;;;;;;;10558996;27;19937;-75
2023/03/25 04:41:25;;;;;;;2.53;0.60;;;;;;;;;;10556608;27;20493;-75
2023/03/25 04:46:28;;;;;;;2.10;0.50;;;;;;;;;;10536986;27;20055;-76
2023/03/25 04:51:33;;;;;;;4.88;0.40;;;;;;;;;;10552808;27;20117;-76
2023/03/25 04:56:38;;;;;;;2.75;0.75;;;;;;;;;;10558398;27;20137;-75
2023/03/25 05:01:44;;;;;;;0.20;0.17;;;;;;;;;;10550486;27;20036;-76
2023/03/25 05:06:58;;;;;;;2.47;0.75;;;;;;;;;;10557154;27;20074;-76
2023/03/25 05:12:03;;;;;;;0.57;0.15;;;;;;;;;;10541103;27;20093;-76
2023/03/25 05:17:06;;;;;;;5.90;0.63;;;;;;;;;;10544649;27;20097;-76
2023/03/25 05:22:11;;;;;;;6.28;0.73;;;;;;;;;;10539221;27;20570;-76
2023/03/25 05:27:18;;;;;;;4.88;0.40;;;;;;;;;;10558543;27;20040;-75
2023/03/25 05:32:24;;;;;;;2.60;0.70;;;;;;;;;;10552640;27;20054;-76
2023/03/25 05:37:30;;;;;;;0.93;0.22;;;;;;;;;;10553234;27;20478;-76
2023/03/25 05:42:33;;;;;;;1.42;0.28;;;;;;;;;;10539676;28;20039;-76
2023/03/25 05:47:36;;;;;;;1.60;0.70;;;;;;;;;;10535417;27;20152;-76
2023/03/25 05:52:41;;;;;;;1.67;0.30;;;;;;;;;;10556889;27;20031;-76
2023/03/25 05:57:44;;;;;;;0.60;0.30;;;;;;;;;;10554395;27;20036;-76
2023/03/25 06:02:48;;;;;;;1.48;0.30;;;;;;;;;;10531548;28;20063;-77
2023/03/25 06:07:55;;;;;;;0.63;0.50;;;;;;;;;;10538706;28;20035;-77
2023/03/25 06:12:58;;;;;;;0.55;0.20;;;;;;;;;;10537123;28;20042;-77
2023/03/25 06:18:01;;;;;;;0.38;0.30;;;;;;;;;;10560633;28;20058;-77
2023/03/25 06:23:06;;;;;;;0.22;0.10;;;;;;;;;;10532098;28;20201;-77
2023/03/25 06:28:17;;;;;;;0.63;0.25;;;;;;;;;;10551748;28;20038;-78
2023/03/25 06:33:21;;;;;;;0.47;0.20;;;;;;;;;;10533400;28;20042;-75
2023/03/25 06:38:46;;;;;;;1.30;0.40;;;;;;;;;;10541047;28;20031;-76
2023/03/25 06:43:49;;;;;;;0.80;0.38;;;;;;;;;;10554933;28;20039;-76
2023/03/25 06:48:52;;;;;;;0.28;0.20;;;;;;;;;;10539088;28;20039;-76
2023/03/25 06:53:57;;;;;;;0.10;0.10;;;;;;;;;;10547210;28;20496;-76
2023/03/25 06:59:00;;;;;;;0.30;0.13;;;;;;;;;;10560576;28;20044;-76
2023/03/25 07:04:03;;;;;;;0.60;0.43;;;;;;;;;;10525400;28;20039;-76
2023/03/25 07:09:07;;;;;;;2.50;1.40;;;;;;;;;;10546527;27;20489;-76
2023/03/25 07:14:10;;;;;;;;;;;;;;;;;;10570226;27;20043;-77
2023/03/25 07:19:13;;;;;;;0.50;0.30;;;;;;;;;;10565047;27;20393;-76
2023/03/25 07:24:18;;;;;;;0.20;0.20;;;;;;;;;;10541307;27;20131;-76
2023/03/25 07:29:22;;;;;;;1.83;0.43;;;;;;;;;;10540121;27;20036;-77
2023/03/25 07:34:25;;;;;;;1.27;0.22;;;;;;;;;;10563982;27;20099;-77
2023/03/25 07:39:30;;;;;;;1.45;0.50;;;;;;;;;;10563534;27;20125;-77
2023/03/25 07:44:35;;;;;;;0.50;0.13;;;;;;;;;;10553768;27;20047;-76
2023/03/25 07:49:39;;;;;;;1.13;0.40;;;;;;;;;;10564780;27;20127;-76
2023/03/25 07:54:44;;;;;;;3.90;0.40;;;;;;;;;;10540235;27;20151;-76
2023/03/25 07:59:47;;;;;;;0.52;0.10;;;;;;;;;;10561072;27;20032;-77
2023/03/25 08:05:02;;;;;;;0.80;0.30;;;;;;;;;;10557773;27;20138;-76
2023/03/25 08:10:18;;;;;;;0.65;0.40;;;;;;;;;;10561926;27;20120;-78
2023/03/25 08:15:23;;;;;;;0.77;0.40;;;;;;;;;;10562200;27;20063;-78
2023/03/25 08:20:26;;;;;;;0.73;0.32;;;;;;;;;;10563341;27;20527;-76
2023/03/25 08:25:31;;;;;;;0.83;0.20;;;;;;;;;;10547002;27;20500;-76
2023/03/25 08:30:37;;;;;;;1.13;0.40;;;;;;;;;;10559393;27;20040;-76
2023/03/25 08:35:41;;;;;;;0.88;0.32;;;;;;;;;;10545632;27;20071;-77
2023/03/25 08:40:46;;;;;;;0.38;0.35;;;;;;;;;;10558995;27;20262;-76
2023/03/25 08:45:53;;;;;;;1.38;0.30;;;;;;;;;;10555412;27;20417;-77
2023/03/25 08:50:57;;;;;;;1.38;0.60;;;;;;;;;;10557850;27;20032;-75
2023/03/25 08:56:01;;;;;;;2.37;0.47;;;;;;;;;;10531771;27;20428;-76
2023/03/25 09:01:05;;;;;;;0.20;0.20;;;;;;;;;;10527950;27;20202;-76
2023/03/25 09:06:09;;;;;;;0.25;0.25;;;;;;;;;;10563597;27;20043;-76
2023/03/25 09:11:16;;;;;;;1.77;0.40;;;;;;;;;;10559733;27;20302;-78
2023/03/25 09:16:37;;;;;;;0.70;0.50;;;;;;;;;;10548107;27;20042;-76
2023/03/25 09:21:41;;;;;;;0.53;0.53;;;;;;;;;;10566937;27;20040;-77
2023/03/25 09:26:45;;;;;;;0.70;0.40;;;;;;;;;;10565504;28;20039;-76
2023/03/25 09:31:54;;;;;;;2.25;0.98;;;;;;;;;;10560400;27;20298;-76
2023/03/25 09:37:00;;;;;;;1.17;1.10;;;;;;;;;;10570130;27;20050;-75
2023/03/25 09:42:27;;;;;;;0.70;0.70;;;;;;;;;;10544765;28;20234;-76
2023/03/25 09:47:34;;;;;;;1.40;0.50;;;;;;;;;;10526809;28;20062;-76
2023/03/25 09:52:44;;;;;;;1.25;1.15;;;;;;;;;;10562481;28;20514;-77
2023/03/25 09:57:50;;;;;;;2.70;0.70;;;;;;;;;;10555634;28;20082;-77
2023/03/25 10:02:53;;;;;;;;;;;;;;;;;;10564981;28;20482;-76
2023/03/25 10:08:05;;;;;;;2.28;0.40;;;;;;;;;;10554535;28;19927;-76
2023/03/25 10:13:14;;;;;;;0.73;0.73;;;;;;;;;;10559810;28;20086;-77
2023/03/25 10:18:28;;;;;;;1.55;0.60;;;;;;;;;;10547628;28;20071;-76
2023/03/25 10:23:36;;;;;;;1.63;0.60;;;;;;;;;;10552847;28;20044;-76
2023/03/25 10:28:42;;;;;;;1.17;0.70;;;;;;;;;;10544447;28;20345;-76
2023/03/25 10:33:50;;;;;;;1.77;0.60;;;;;;;;;;10553767;28;20043;-77
2023/03/25 10:38:54;;;;;;;0.75;0.45;;;;;;;;;;10537602;28;20042;-77
2023/03/25 10:43:59;;;;;;;0.90;0.45;;;;;;;;;;10542629;27;20035;-78
2023/03/25 10:49:03;;;;;;;0.45;0.43;;;;;;;;;;10542866;27;20042;-77
2023/03/25 10:54:10;;;;;;;1.75;0.50;;;;;;;;;;10569731;27;20042;-76
2023/03/25 10:59:17;;;;;;;0.73;0.50;;;;;;;;;;10565430;27;20310;-79
2023/03/25 11:04:34;;;;;;;2.95;0.50;;;;;;;;;;10559767;27;20120;-77
2023/03/25 11:09:50;;;;;;;1.45;0.50;;;;;;;;;;10545561;27;20092;-77
2023/03/25 11:14:55;;;;;;;2.03;0.82;;;;;;;;;;10549483;27;20042;-76
2023/03/25 11:20:02;;;;;;;0.90;0.50;;;;;;;;;;10562820;27;20032;-78
2023/03/25 11:25:16;;;;;;;1.00;0.60;;;;;;;;;;10544225;27;20205;-76
2023/03/25 11:30:20;;;;;;;0.52;0.25;;;;;;;;;;10538618;27;20071;-78
2023/03/25 11:35:24;;;;;;;0.50;0.50;;;;;;;;;;10558802;27;20098;-78
2023/03/25 11:40:37;;;;;;;0.40;0.40;;;;;;;;;;10567554;27;20051;-76
2023/03/25 11:45:44;;;;;;;0.45;0.45;;;;;;;;;;10561464;27;20046;-78
2023/03/25 11:50:51;;;;;;;1.40;0.40;;;;;;;;;;10543790;28;21391;-77
2023/03/25 11:55:59;;;;;;;0.22;0.22;;;;;;;;;;10553766;27;20046;-77
2023/03/25 12:01:04;;;;;;;0.55;0.50;;;;;;;;;;10562951;27;20112;-78
2023/03/25 12:06:17;;;;;;;0.80;0.30;;;;;;;;;;10544035;27;20043;-76
2023/03/25 12:11:24;;;;;;;1.48;0.73;;;;;;;;;;10536143;27;20119;-77
2023/03/25 12:16:39;;;;;;;0.88;0.38;;;;;;;;;;10571869;27;20039;-75
2023/03/25 12:21:48;;;;;;;0.50;0.50;;;;;;;;;;10572646;27;20074;-74
2023/03/25 12:26:59;;;;;;;0.65;0.50;;;;;;;;;;10594681;27;20091;-76
2023/03/25 12:32:26;;;;;;;0.70;0.70;;;;;;;;;;10575778;27;20096;-76
2023/03/25 12:37:38;;;;;;;0.52;0.50;;;;;;;;;;10573671;27;20119;-77
2023/03/25 12:42:45;;;;;;;1.88;0.40;;;;;;;;;;10573940;27;20020;-77
2023/03/25 12:47:52;;;;;;;0.55;0.35;;;;;;;;;;10559632;27;20064;-75
2023/03/25 12:53:01;;;;;;;3.08;1.38;;;;;;;;;;10542352;28;20482;-77
2023/03/25 12:58:34;;;;;;;0.57;0.57;;;;;;;;;;10545228;27;20148;-76
2023/03/25 13:03:45;;;;;;;2.00;1.20;;;;;;;;;;10559131;27;20088;-77
2023/03/25 13:09:03;;;;;;;0.30;0.30;;;;;;;;;;10560925;27;20500;-76
2023/03/25 13:14:08;;;;;;;3.50;1.58;;;;;;;;;;10558286;27;20113;-76
2023/03/25 13:19:16;;;;;;;1.00;1.00;;;;;;;;;;10556976;27;20046;-76
2023/03/25 13:24:23;;;;;;;2.15;0.60;;;;;;;;;;10542558;27;20043;-77
2023/03/25 13:29:28;;;;;;;0.90;0.90;;;;;;;;;;10540013;27;20044;-77
2023/03/25 13:34:36;;;;;;;1.10;1.00;;;;;;;;;;10541472;27;20032;-75
2023/03/25 13:39:48;;;;;;;1.15;0.73;;;;;;;;;;10555966;27;20040;-75
2023/03/25 13:44:54;;;;;;;1.35;0.90;;;;;;;;;;10566202;27;20118;-77
2023/03/25 13:50:01;;;;;;;0.77;0.70;;;;;;;;;;10560483;27;20408;-76
2023/03/25 13:55:12;;;;;;;1.23;0.80;;;;;;;;;;10547515;28;20043;-77
2023/03/25 14:00:23;;;;;;;0.80;0.80;;;;;;;;;;10562981;28;20059;-76
2023/03/25 14:05:47;;;;;;;0.68;0.68;;;;;;;;;;10538081;28;20158;-76
2023/03/25 14:10:53;;;;;;;0.38;0.38;;;;;;;;;;10553547;28;20467;-76
2023/03/25 14:16:00;;;;;;;0.70;0.70;;;;;;;;;;10561509;27;20472;-76
2023/03/25 14:21:15;;;;;;;2.33;0.85;;;;;;;;;;10570808;27;20043;-76
2023/03/25 14:26:18;;;;;;;1.10;0.70;;;;;;;;;;10566440;27;20101;-75
2023/03/25 14:31:28;;;;;;;0.50;0.50;;;;;;;;;;10541688;27;20063;-76
2023/03/25 14:36:56;;;;;;;1.77;0.65;;;;;;;;;;10570778;27;20038;-76
2023/03/25 14:42:04;;;;;;;0.35;0.28;;;;;;;;;;10568756;27;20705;-76
2023/03/25 14:47:30;;;;;;;0.90;0.55;;;;;;;;;;10564544;27;20051;-76
2023/03/25 14:52:38;;;;;;;0.75;0.57;;;;;;;;;;10574105;27;20047;-76
2023/03/25 14:57:44;;;;;;;1.73;0.73;;;;;;;;;;10568366;27;20043;-76
2023/03/25 15:02:50;;;;;;;0.43;0.40;;;;;;;;;;10561985;27;20058;-77
2023/03/25 15:07:57;;;;;;;0.35;0.30;;;;;;;;;;10566885;27;20035;-77
2023/03/25 15:13:04;;;;;;;0.52;0.40;;;;;;;;;;10548776;27;20048;-75
2023/03/25 15:18:09;;;;;;;0.57;0.43;;;;;;;;;;10535850;27;20057;-75
2023/03/25 15:23:38;;;;;;;1.33;0.60;;;;;;;;;;10559678;27;20152;-76
2023/03/25 15:28:59;;;;;;;1.02;0.70;;;;;;;;;;10537822;27;20235;-75
2023/03/25 15:34:19;;;;;;;0.70;0.40;;;;;;;;;;10556439;27;20032;-75
2023/03/25 15:39:31;;;;;;;0.95;0.60;;;;;;;;;;10560812;27;20092;-77
2023/03/25 15:44:45;;;;;;;1.35;0.60;;;;;;;;;;10560376;27;20114;-77
2023/03/25 15:50:14;;;;;;;1.55;0.52;;;;;;;;;;10565123;27;20497;-76
2023/03/25 15:55:30;;;;;;;1.45;0.70;;;;;;;;;;10539230;27;20032;-76
2023/03/25 16:00:37;;;;;;;1.00;0.52;;;;;;;;;;10560441;27;20130;-77
2023/03/25 16:05:46;;;;;;;1.20;0.50;;;;;;;;;;10552969;27;20047;-76
2023/03/25 16:10:52;;;;;;;0.43;0.40;;;;;;;;;;10524286;27;20055;-77
2023/03/25 16:15:57;;;;;;;0.75;0.65;;;;;;;;;;10562310;27;20042;-78
2023/03/25 16:21:01;;;;;;;0.90;0.40;;;;;;;;;;10563004;27;21146;-77
2023/03/25 16:26:06;;;;;;;0.38;0.38;;;;;;;;;;10552128;27;20044;-77
2023/03/25 16:31:31;;;;;;;1.15;0.70;;;;;;;;;;10545578;28;20485;-77
2023/03/25 16:36:36;;;;;;;1.65;0.52;;;;;;;;;;10561333;27;20481;-77
2023/03/25 16:41:49;;;;;;;1.00;0.50;;;;;;;;;;10543208;27;20126;-76
2023/03/25 16:46:52;;;;;;;0.52;0.50;;;;;;;;;;10556470;27;20058;-75
2023/03/25 16:51:56;;;;;;;0.52;0.47;;;;;;;;;;10556655;27;20032;-77
2023/03/25 16:57:02;;;;;;;1.75;0.77;;;;;;;;;;10559954;27;20404;-77
2023/03/25 17:02:22;;;;;;;3.25;0.90;;;;;;;;;;10555077;27;20535;-78
2023/03/25 17:07:29;;;;;;;0.57;0.52;;;;;;;;;;10555019;27;20126;-76
2023/03/25 17:12:35;;;;;;;3.03;0.60;;;;;;;;;;10537067;27;20052;-78
2023/03/25 17:17:41;;;;;;;0.65;0.50;;;;;;;;;;10556304;27;20054;-76
2023/03/25 17:22:54;;;;;;;3.13;0.55;;;;;;;;;;10545159;27;20540;-76
2023/03/25 17:28:04;;;;;;;2.22;0.50;;;;;;;;;;10555488;27;20034;-76
2023/03/25 17:33:11;;;;;;;1.25;0.50;;;;;;;;;;10563194;27;20222;-77
2023/03/25 17:38:18;;;;;;;3.42;0.50;;;;;;;;;;10557037;27;20090;-76
2023/03/25 17:43:24;;;;;;;1.17;0.70;;;;;;;;;;10554655;27;20051;-77
2023/03/25 17:48:27;;;;;;;0.73;0.52;;;;;;;;;;10555745;28;20045;-76
2023/03/25 17:53:30;;;;;;;0.57;0.30;;;;;;;;;;10556095;27;20795;-76
2023/03/25 17:58:35;;;;;;;0.40;0.40;;;;;;;;;;10540016;28;20176;-76
2023/03/25 18:03:39;;;;;;;0.70;0.45;;;;;;;;;;10535186;28;20125;-78
2023/03/25 18:08:43;;;;;;;;;;;;;;;;;;10540789;28;20042;-76
2023/03/25 18:13:47;;;;;;;2.13;0.52;;;;;;;;;;10557608;28;19919;-77
2023/03/25 18:19:02;;;;;;;2.03;0.57;;;;;;;;;;10556461;28;20071;-77
2023/03/25 18:24:06;;;;;;;0.75;0.45;;;;;;;;;;10531402;28;20051;-75
2023/03/25 18:29:12;;;;;;;3.00;0.57;;;;;;;;;;10550733;28;20047;-75
2023/03/25 18:34:16;;;;;;;3.25;1.00;;;;;;;;;;10533908;28;20040;-75
2023/03/25 18:39:22;;;;;;;1.45;0.70;;;;;;;;;;10539230;28;20051;-77
2023/03/25 18:44:30;;;;;;;1.48;0.85;;;;;;;;;;10556603;28;20036;-75
2023/03/25 18:49:34;;;;;;;1.05;0.75;;;;;;;;;;10532089;28;20031;-78
2023/03/25 18:54:37;;;;;;;0.77;0.67;;;;;;;;;;10533739;28;20442;-75
2023/03/25 18:59:52;;;;;;;3.55;0.55;;;;;;;;;;10555916;27;20301;-77
2023/03/25 19:04:58;;;;;;;1.33;0.60;;;;;;;;;;10570928;27;20035;-76
2023/03/25 19:10:03;;;;;;;1.77;0.80;;;;;;;;;;10573551;27;20042;-76
2023/03/25 19:15:15;;;;;;;2.03;0.70;;;;;;;;;;10567587;28;20036;-73
2023/03/25 19:20:19;;;;;;;0.77;0.50;;;;;;;;;;10574791;27;20066;-78
2023/03/25 19:25:25;;;;;;;1.98;0.73;;;;;;;;;;10575629;28;20036;-76
2023/03/25 19:30:27;;;;;;;;;;;;;;;;;;10565842;27;20413;-76
2023/03/25 19:35:41;;;;;;;1.67;0.70;;;;;;;;;;10564929;27;19919;-77
2023/03/25 19:41:00;;;;;;;0.50;0.50;;;;;;;;;;10569328;27;20036;-78
2023/03/25 19:46:05;;;;;;;2.38;0.75;;;;;;;;;;10559046;27;20380;-77
2023/03/25 19:51:11;;;;;;;3.97;0.80;;;;;;;;;;10550450;27;20530;-76
2023/03/25 19:56:14;;;;;;;2.05;1.20;;;;;;;;;;10539072;27;20115;-76
2023/03/25 20:01:21;;;;;;;1.73;0.88;;;;;;;;;;10543611;27;20649;-77
2023/03/25 20:06:27;;;;;;;0.52;0.43;;;;;;;;;;10550605;27;20035;-78
2023/03/25 20:11:30;;;;;;;0.70;0.45;;;;;;;;;;10548163;27;20085;-76
2023/03/25 20:16:34;;;;;;;1.65;0.63;;;;;;;;;;10544803;27;20042;-75
2023/03/25 20:21:38;;;;;;;1.77;0.63;;;;;;;;;;10565179;27;20044;-76
2023/03/25 20:26:44;;;;;;;2.25;0.80;;;;;;;;;;10568498;27;20117;-76
2023/03/25 20:31:48;;;;;;;0.73;0.65;;;;;;;;;;10544249;28;20097;-76
2023/03/25 20:36:53;;;;;;;0.88;0.55;;;;;;;;;;10558440;27;20038;-77
2023/03/25 20:41:57;;;;;;;2.83;0.82;;;;;;;;;;10552249;27;20036;-78
2023/03/25 20:47:00;;;;;;;0.67;0.33;;;;;;;;;;10544423;27;20425;-77
2023/03/25 20:52:05;;;;;;;1.90;0.63;;;;;;;;;;10553878;27;20074;-77
2023/03/25 20:57:08;;;;;;;1.55;0.55;;;;;;;;;;10563473;27;20027;-77
2023/03/25 21:02:12;;;;;;;2.53;0.87;;;;;;;;;;10540254;27;20415;-77
2023/03/25 21:07:21;;;;;;;0.60;0.47;;;;;;;;;;10541406;27;20126;-76
2023/03/25 21:12:25;;;;;;;1.17;0.60;;;;;;;;;;10540721;27;20039;-78
2023/03/25 21:17:45;;;;;;;1.00;0.43;;;;;;;;;;10552727;27;20055;-76
2023/03/25 21:22:51;;;;;;;0.93;0.40;;;;;;;;;;10538852;27;20146;-76
2023/03/25 21:27:53;;;;;;;;;;;;;;;;;;10554311;27;20047;-76
2023/03/25 21:32:57;;;;;;;1.80;0.65;;;;;;;;;;10537720;27;19933;-77
2023/03/25 21:38:01;;;;;;;0.95;0.50;;;;;;;;;;10534888;27;20052;-77
2023/03/25 21:43:05;;;;;;;1.55;0.63;;;;;;;;;;10544577;28;20508;-74
2023/03/25 21:48:09;;;;;;;2.25;0.90;;;;;;;;;;10534306;28;20046;-77
2023/03/25 21:53:17;;;;;;;1.00;0.60;;;;;;;;;;10557374;28;20093;-77
2023/03/25 21:58:20;;;;;;;1.27;0.80;;;;;;;;;;10554291;27;20147;-76
2023/03/25 22:03:28;;;;;;;3.33;0.97;;;;;;;;;;10554709;27;20070;-76
2023/03/25 22:08:35;;;;;;;1.75;0.80;;;;;;;;;;10562106;28;20215;-76
2023/03/25 22:13:38;;;;;;;2.95;1.17;;;;;;;;;;10557038;28;20461;-76
2023/03/25 22:18:42;;;;;;;1.52;0.95;;;;;;;;;;10554409;28;20090;-76
2023/03/25 22:23:47;;;;;;;2.63;0.75;;;;;;;;;;10535562;28;20129;-76
2023/03/25 22:28:53;;;;;;;3.72;0.80;;;;;;;;;;10556236;28;20036;-76
2023/03/25 22:33:57;;;;;;;2.20;0.90;;;;;;;;;;10551193;27;20521;-76
2023/03/25 22:38:59;;;;;;;;;;;;;;;;;;10538881;27;20048;-76
2023/03/25 22:44:04;;;;;;;0.55;0.52;;;;;;;;;;10540283;27;19950;-76
2023/03/25 22:49:07;;;;;;;3.05;0.70;;;;;;;;;;10563456;27;20203;-76
2023/03/25 22:54:10;;;;;;;3.97;1.20;;;;;;;;;;10544467;27;20093;-76
2023/03/25 22:59:15;;;;;;;1.38;0.63;;;;;;;;;;10546671;27;20047;-76
2023/03/25 23:04:19;;;;;;;0.25;0.20;;;;;;;;;;10544387;27;20044;-76
2023/03/25 23:14:55;;;;;;;1.15;0.80;;;;;;;;;;10487587;27;20414;-77
2023/03/25 23:19:58;;;;;;;1.73;0.80;;;;;;;;;;10464916;28;20051;-75
2023/03/25 23:25:03;;;;;;;0.38;0.30;;;;;;;;;;10467128;28;20045;-77
2023/03/25 23:30:08;;;;;;;4.05;0.80;;;;;;;;;;10469165;28;20052;-76
2023/03/25 23:35:17;;;;;;;0.13;0.10;;;;;;;;;;10464981;28;20063;-76
2023/03/25 23:40:22;;;;;;;2.95;0.70;;;;;;;;;;10471085;28;20131;-76
2023/03/25 23:45:28;;;;;;;4.13;0.70;;;;;;;;;;10467837;28;20068;-76
2023/03/25 23:50:32;;;;;;;2.33;0.68;;;;;;;;;;10464516;28;20032;-76
2023/03/25 23:55:36;;;;;;;2.22;0.40;;;;;;;;;;10468518;28;20119;-76
